Time;durP1;ratioP1;P1;durP2;ratioP2;P2;SDS_P1;SDS_P2;PMS_P1;PMS_P2;Temp;Humidity;BMP_temperature;BMP_pressure;BME280_temperature;BME280_humidity;BME280_pressure;Samples;Min_cycle;Max_cycle;Signal;HPM_P1;HPM_P2
2021/05/12 00:00:01;;;;;;;37.60;21.93;;;13.30;99.90;;;;;;5038702;28;20977;-80
2021/05/12 00:02:29;;;;;;;35.00;22.90;;;13.40;99.90;;;;;;5037732;28;20476;-80
2021/05/12 00:04:55;;;;;;;33.43;20.70;;;13.40;99.90;;;;;;5037682;28;20513;-80
2021/05/12 00:07:21;;;;;;;50.03;31.23;;;13.40;99.90;;;;;;5038210;28;20476;-80
2021/05/12 00:09:49;;;;;;;35.80;21.77;;;13.40;99.90;;;;;;5039423;28;20457;-80
2021/05/12 00:12:15;;;;;;;37.50;23.63;;;13.40;99.90;;;;;;5037680;28;20453;-80
2021/05/12 00:14:42;;;;;;;37.37;22.80;;;13.40;99.90;;;;;;5038486;28;20524;-80
2021/05/12 00:17:10;;;;;;;51.80;34.80;;;13.40;99.90;;;;;;5037065;28;20571;-80
2021/05/12 00:19:39;;;;;;;48.70;29.33;;;13.40;99.90;;;;;;5038291;28;20460;-80
2021/05/12 00:22:17;;;;;;;46.30;30.43;;;13.40;99.90;;;;;;5038571;28;20971;-81
2021/05/12 00:24:43;;;;;;;48.27;30.80;;;13.40;99.90;;;;;;5037189;28;20460;-81
2021/05/12 00:27:10;;;;;;;46.70;31.47;;;13.40;99.90;;;;;;5037918;28;20475;-81
2021/05/12 00:29:36;;;;;;;48.87;38.27;;;13.40;99.90;;;;;;5038066;28;20544;-80
2021/05/12 00:32:03;;;;;;;45.07;32.83;;;13.40;99.90;;;;;;5037788;28;20535;-80
2021/05/12 00:34:29;;;;;;;47.77;34.67;;;13.30;99.90;;;;;;5041505;28;20510;-80
2021/05/12 00:36:56;;;;;;;41.13;28.10;;;13.40;99.90;;;;;;5041799;28;20488;-80
2021/05/12 00:39:22;;;;;;;44.53;30.43;;;13.40;99.90;;;;;;5041692;28;20524;-80
2021/05/12 00:41:48;;;;;;;46.27;31.30;;;13.40;99.90;;;;;;5040524;28;20457;-80
2021/05/12 00:44:21;;;;;;;47.93;36.30;;;13.40;99.90;;;;;;5040110;28;20453;-80
2021/05/12 00:46:49;;;;;;;46.57;33.60;;;13.40;99.90;;;;;;5039143;28;20479;-80
2021/05/12 00:49:16;;;;;;;45.03;28.23;;;13.40;99.90;;;;;;5040725;28;20606;-80
2021/05/12 00:51:43;;;;;;;43.50;28.00;;;13.50;99.90;;;;;;5041669;28;20524;-80
2021/05/12 00:54:11;;;;;;;42.67;27.50;;;13.50;99.90;;;;;;5041552;28;20535;-80
2021/05/12 00:56:40;;;;;;;45.80;28.97;;;13.50;99.90;;;;;;5040254;28;20491;-80
2021/05/12 00:59:07;;;;;;;42.10;27.73;;;13.50;99.90;;;;;;5030626;28;20449;-80
2021/05/12 01:01:36;;;;;;;47.37;28.17;;;13.50;99.90;;;;;;5041577;28;20453;-80
2021/05/12 01:04:03;;;;;;;40.93;28.13;;;13.40;99.90;;;;;;5040098;28;20524;-80
2021/05/12 01:06:31;;;;;;;43.93;29.37;;;13.40;99.90;;;;;;5038912;28;20540;-80
2021/05/12 01:08:58;;;;;;;47.83;31.17;;;13.40;99.90;;;;;;5040638;28;20463;-80
2021/05/12 01:11:26;;;;;;;44.67;30.93;;;13.40;99.90;;;;;;5039392;28;20529;-79
2021/05/12 01:13:53;;;;;;;47.67;31.17;;;13.40;99.90;;;;;;5039633;28;20456;-80
2021/05/12 01:16:20;;;;;;;44.60;27.07;;;13.40;99.90;;;;;;5038977;28;20548;-80
2021/05/12 01:18:47;;;;;;;48.63;33.20;;;13.50;99.90;;;;;;5040274;28;20764;-80
2021/05/12 01:21:15;;;;;;;43.83;29.93;;;13.50;99.90;;;;;;5038624;28;20452;-81
2021/05/12 01:23:44;;;;;;;45.13;31.27;;;13.50;99.90;;;;;;5040175;28;20566;-80
2021/05/12 01:26:13;;;;;;;47.27;31.73;;;13.50;99.90;;;;;;5038669;28;20473;-80
2021/05/12 01:28:42;;;;;;;46.50;33.00;;;13.40;99.90;;;;;;5040017;28;20448;-80
2021/05/12 01:31:11;;;;;;;45.27;30.27;;;13.40;99.90;;;;;;5039402;28;20505;-80
2021/05/12 01:33:39;;;;;;;50.70;32.97;;;13.40;99.90;;;;;;5038389;28;20545;-80
2021/05/12 01:36:06;;;;;;;47.57;29.80;;;13.30;99.90;;;;;;5036536;28;20455;-80
2021/05/12 01:38:36;;;;;;;50.23;31.17;;;13.40;99.90;;;;;;5036048;28;20537;-80
2021/05/12 01:41:03;;;;;;;53.73;34.47;;;13.40;99.90;;;;;;5036885;28;20516;-79
2021/05/12 01:43:30;;;;;;;48.83;32.33;;;13.40;99.90;;;;;;5037346;28;20503;-80
2021/05/12 01:45:56;;;;;;;49.53;31.33;;;13.50;99.90;;;;;;5035654;28;20452;-80
2021/05/12 01:48:23;;;;;;;58.30;37.87;;;13.50;99.90;;;;;;5036007;28;20541;-80
2021/05/12 01:50:50;;;;;;;62.73;42.47;;;13.30;99.90;;;;;;5036157;28;20463;-80
2021/05/12 01:53:17;;;;;;;53.27;35.20;;;13.40;99.90;;;;;;5036258;28;20960;-80
2021/05/12 01:55:46;;;;;;;50.00;33.37;;;13.40;99.90;;;;;;5035615;28;20463;-80
2021/05/12 01:58:12;;;;;;;47.80;33.00;;;13.30;99.90;;;;;;5034205;28;21051;-79
2021/05/12 02:00:41;;;;;;;52.80;31.50;;;13.40;99.90;;;;;;5039004;28;20552;-79
2021/05/12 02:03:08;;;;;;;52.93;34.80;;;13.40;99.90;;;;;;5041946;28;20540;-80
2021/05/12 02:05:35;;;;;;;51.40;34.20;;;13.30;99.90;;;;;;5041507;28;21006;-80
2021/05/12 02:08:04;;;;;;;53.13;31.80;;;13.40;99.90;;;;;;5041798;28;20525;-79
2021/05/12 02:10:30;;;;;;;47.63;31.53;;;13.40;99.90;;;;;;5041182;28;20527;-80
2021/05/12 02:12:58;;;;;;;44.57;29.43;;;13.30;99.90;;;;;;5041448;28;20547;-80
2021/05/12 02:15:24;;;;;;;45.97;29.20;;;13.30;99.90;;;;;;5042310;28;20452;-80
2021/05/12 02:17:51;;;;;;;45.23;28.67;;;13.30;99.90;;;;;;5064480;23;20528;-79
2021/05/12 02:20:22;;;;;;;46.00;30.03;;;13.20;99.90;;;;;;5045614;28;20452;-80
2021/05/12 02:22:49;;;;;;;47.30;30.63;;;13.20;99.90;;;;;;5042828;28;20444;-78
2021/05/12 02:25:15;;;;;;;51.77;31.73;;;13.10;99.90;;;;;;5041267;28;20448;-79
2021/05/12 02:27:42;;;;;;;59.07;35.70;;;13.10;99.90;;;;;;5040935;28;20468;-79
2021/05/12 02:30:11;;;;;;;52.10;32.77;;;13.10;99.90;;;;;;5041063;28;20547;-80
2021/05/12 02:32:38;;;;;;;45.43;29.73;;;13.00;99.90;;;;;;5040675;28;20527;-79
2021/05/12 02:35:06;;;;;;;47.03;30.90;;;13.00;99.90;;;;;;5041397;28;20539;-79
2021/05/12 02:37:32;;;;;;;48.73;28.10;;;12.90;99.90;;;;;;5040066;28;20492;-78
2021/05/12 02:39:59;;;;;;;50.87;32.30;;;12.90;99.90;;;;;;5021279;28;20457;-80
2021/05/12 02:42:26;;;;;;;49.07;29.50;;;12.80;99.90;;;;;;5023930;28;20468;-79
2021/05/12 02:44:52;;;;;;;50.67;31.03;;;12.70;99.90;;;;;;5040483;28;20454;-79
2021/05/12 02:47:19;;;;;;;51.73;31.57;;;12.70;99.90;;;;;;5040695;28;20479;-79
2021/05/12 02:49:46;;;;;;;49.20;30.30;;;12.60;99.90;;;;;;5040640;28;20470;-79
2021/05/12 02:52:12;;;;;;;46.20;29.93;;;12.60;99.90;;;;;;5040436;28;20462;-79
2021/05/12 02:54:38;;;;;;;51.43;30.83;;;12.50;99.90;;;;;;5040372;28;20451;-80
2021/05/12 02:57:05;;;;;;;56.13;32.30;;;12.40;99.90;;;;;;5039986;28;20460;-79
2021/05/12 02:59:32;;;;;;;47.57;29.57;;;12.30;99.90;;;;;;5040358;28;20445;-79
2021/05/12 03:01:58;;;;;;;50.53;30.13;;;12.20;99.90;;;;;;5039708;28;20448;-79
2021/05/12 03:04:25;;;;;;;50.57;32.30;;;12.10;99.90;;;;;;5040031;28;20454;-79
2021/05/12 03:06:52;;;;;;;54.37;33.73;;;12.00;99.90;;;;;;5039661;28;20484;-79
2021/05/12 03:09:18;;;;;;;62.63;35.07;;;11.90;99.90;;;;;;5040057;28;20956;-79
2021/05/12 03:11:44;;;;;;;55.40;32.53;;;11.90;99.90;;;;;;5037965;28;20456;-80
2021/05/12 03:14:11;;;;;;;52.83;30.73;;;11.80;99.90;;;;;;5036059;28;20455;-78
2021/05/12 03:16:38;;;;;;;52.63;29.37;;;11.70;99.90;;;;;;5037062;28;21828;-79
2021/05/12 03:19:05;;;;;;;54.30;31.33;;;11.60;99.90;;;;;;5037630;28;20471;-79
2021/05/12 03:21:33;;;;;;;64.10;35.53;;;11.60;99.90;;;;;;5037038;28;20949;-79
2021/05/12 03:24:00;;;;;;;52.80;29.83;;;11.50;99.90;;;;;;5037258;28;20460;-80
2021/05/12 03:26:27;;;;;;;56.77;30.97;;;11.50;99.90;;;;;;5036577;28;20492;-78
2021/05/12 03:28:54;;;;;;;53.63;31.50;;;11.40;99.90;;;;;;5036586;28;20498;-78
2021/05/12 03:31:20;;;;;;;58.97;32.87;;;11.30;99.90;;;;;;5036624;28;20453;-78
2021/05/12 03:33:46;;;;;;;50.03;30.97;;;11.20;99.90;;;;;;5035955;28;20453;-78
2021/05/12 03:36:13;;;;;;;65.90;34.03;;;11.20;99.90;;;;;;5035578;28;20572;-79
2021/05/12 03:38:40;;;;;;;50.73;30.27;;;11.10;99.90;;;;;;5036932;28;20477;-79
2021/05/12 03:41:07;;;;;;;50.90;30.40;;;11.10;99.90;;;;;;5036942;28;20494;-79
2021/05/12 03:43:34;;;;;;;54.50;31.80;;;11.10;99.90;;;;;;5037467;28;20449;-81
2021/05/12 03:46:03;;;;;;;110.47;99.68;;;11.10;99.90;;;;;;5036347;28;20496;-81
2021/05/12 03:48:30;;;;;;;55.23;34.70;;;11.10;99.90;;;;;;5036385;28;20225;-80
2021/05/12 03:50:57;;;;;;;51.20;31.07;;;11.10;99.90;;;;;;5036212;28;20559;-80
2021/05/12 03:53:23;;;;;;;50.10;28.60;;;11.10;99.90;;;;;;5035587;28;20461;-80
2021/05/12 03:55:51;;;;;;;66.90;34.87;;;11.10;99.90;;;;;;5036078;28;20461;-81
2021/05/12 03:58:17;;;;;;;52.53;28.73;;;11.00;99.90;;;;;;5036907;28;20468;-80
2021/05/12 04:00:45;;;;;;;45.20;27.07;;;11.00;99.90;;;;;;5041861;28;20437;-81
2021/05/12 04:03:11;;;;;;;47.50;26.90;;;10.90;99.90;;;;;;5045583;28;20457;-80
2021/05/12 04:05:38;;;;;;;52.23;28.50;;;10.90;99.90;;;;;;5036670;28;20525;-81
2021/05/12 04:08:04;;;;;;;47.93;26.50;;;10.80;99.90;;;;;;5036775;28;20911;-80
2021/05/12 04:10:31;;;;;;;53.23;31.00;;;10.80;99.90;;;;;;5037101;28;20456;-79
2021/05/12 04:12:58;;;;;;;46.80;27.17;;;10.80;99.90;;;;;;5036351;28;20472;-80
2021/05/12 04:15:24;;;;;;;51.00;29.93;;;10.80;99.90;;;;;;5037564;28;20452;-78
2021/05/12 04:17:51;;;;;;;55.87;27.20;;;10.80;99.90;;;;;;5034303;28;20560;-79
2021/05/12 04:20:19;;;;;;;45.57;26.87;;;10.80;99.90;;;;;;5033792;28;20457;-80
2021/05/12 04:22:46;;;;;;;61.23;29.43;;;10.80;99.90;;;;;;5036032;28;20463;-80
2021/05/12 04:25:15;;;;;;;51.33;27.53;;;10.70;99.90;;;;;;5036567;28;20460;-79
2021/05/12 04:27:41;;;;;;;47.87;28.37;;;10.70;99.90;;;;;;5036893;28;20484;-79
2021/05/12 04:30:12;;;;;;;46.70;26.50;;;10.70;99.90;;;;;;5036914;28;20459;-81
2021/05/12 04:32:39;;;;;;;46.87;28.30;;;10.70;99.90;;;;;;5037066;28;20829;-80
2021/05/12 04:35:06;;;;;;;48.10;26.27;;;10.70;99.90;;;;;;5036122;28;20445;-80
2021/05/12 04:37:33;;;;;;;62.33;31.80;;;10.80;99.90;;;;;;5036608;28;20528;-79
2021/05/12 04:39:59;;;;;;;50.37;28.00;;;10.70;99.90;;;;;;5037135;28;20510;-81
2021/05/12 04:42:25;;;;;;;46.30;26.37;;;10.80;99.90;;;;;;5036408;28;20479;-80
2021/05/12 04:44:52;;;;;;;45.00;27.13;;;10.80;99.90;;;;;;5036028;28;20453;-80
2021/05/12 04:47:20;;;;;;;50.40;26.60;;;10.80;99.90;;;;;;5036549;28;20492;-80
2021/05/12 04:49:46;;;;;;;50.63;28.53;;;10.80;99.90;;;;;;5036818;28;20953;-80
2021/05/12 04:52:13;;;;;;;54.53;28.87;;;10.80;99.90;;;;;;5036658;28;20455;-79
2021/05/12 04:54:39;;;;;;;47.23;25.50;;;10.90;99.90;;;;;;5036067;28;20469;-80
2021/05/12 04:57:06;;;;;;;47.87;27.00;;;10.90;99.90;;;;;;5036181;28;20475;-80
2021/05/12 04:59:33;;;;;;;50.10;27.67;;;11.00;99.90;;;;;;5035508;28;20481;-80
2021/05/12 05:02:00;;;;;;;54.07;26.23;;;11.00;99.90;;;;;;5035208;28;20522;-81
2021/05/12 05:04:27;;;;;;;46.90;25.83;;;11.10;99.90;;;;;;5035972;28;20441;-80
2021/05/12 05:06:53;;;;;;;42.83;24.97;;;11.30;99.90;;;;;;5029522;28;21016;-79
2021/05/12 05:09:20;;;;;;;52.57;29.67;;;11.20;99.90;;;;;;5025591;28;21228;-81
2021/05/12 05:11:46;;;;;;;50.97;27.60;;;11.30;99.90;;;;;;5033848;28;20453;-80
2021/05/12 05:14:13;;;;;;;41.43;25.60;;;11.40;99.90;;;;;;5036160;28;20877;-81
2021/05/12 05:16:39;;;;;;;42.97;26.87;;;11.40;99.90;;;;;;5036429;28;20507;-80
2021/05/12 05:19:06;;;;;;;45.00;25.33;;;11.50;99.90;;;;;;5035411;28;20460;-79
2021/05/12 05:21:33;;;;;;;47.13;27.53;;;11.60;99.90;;;;;;5034600;28;20453;-79
2021/05/12 05:24:00;;;;;;;43.23;24.30;;;11.70;99.90;;;;;;5032428;28;20517;-80
2021/05/12 05:26:26;;;;;;;49.37;26.27;;;11.70;99.90;;;;;;5033438;28;20449;-79
2021/05/12 05:28:52;;;;;;;46.00;24.50;;;11.80;99.90;;;;;;5034914;28;20477;-80
2021/05/12 05:31:19;;;;;;;41.33;23.13;;;11.80;99.90;;;;;;5034905;28;20455;-80
2021/05/12 05:33:45;;;;;;;40.93;23.47;;;11.80;99.90;;;;;;5035831;28;20488;-78
2021/05/12 05:36:12;;;;;;;35.87;20.57;;;11.90;99.90;;;;;;5039289;28;20506;-78
2021/05/12 05:38:39;;;;;;;43.47;23.30;;;12.00;99.90;;;;;;5037842;28;20503;-80
2021/05/12 05:41:05;;;;;;;40.57;22.80;;;12.00;99.90;;;;;;5033430;28;20453;-78
2021/05/12 05:43:33;;;;;;;44.57;24.30;;;12.20;99.90;;;;;;5033574;28;20448;-78
2021/05/12 05:46:01;;;;;;;38.67;21.00;;;12.40;99.90;;;;;;5017797;28;21020;-78
2021/05/12 05:48:27;;;;;;;44.40;23.23;;;12.60;99.90;;;;;;5032256;28;20492;-79
2021/05/12 05:50:53;;;;;;;37.57;21.40;;;12.70;99.90;;;;;;5034382;28;20968;-82
2021/05/12 05:53:20;;;;;;;39.70;22.63;;;12.80;99.90;;;;;;5043075;28;20479;-82
2021/05/12 05:55:48;;;;;;;39.60;21.57;;;13.00;99.90;;;;;;5049983;28;20579;-81
2021/05/12 05:58:14;;;;;;;36.10;20.10;;;12.90;99.90;;;;;;5045491;28;20611;-80
2021/05/12 06:00:41;;;;;;;32.40;18.80;;;13.10;99.90;;;;;;5045123;28;20544;-82
2021/05/12 06:03:08;;;;;;;38.23;19.60;;;13.20;99.90;;;;;;5042175;28;20453;-82
2021/05/12 06:05:35;;;;;;;34.47;17.70;;;13.30;99.90;;;;;;5044273;28;20516;-81
2021/05/12 06:08:01;;;;;;;37.57;21.13;;;13.30;99.90;;;;;;5041339;28;20492;-82
2021/05/12 06:10:27;;;;;;;39.67;20.70;;;13.40;99.90;;;;;;5039171;28;20535;-81
2021/05/12 06:12:55;;;;;;;34.40;18.60;;;13.20;99.90;;;;;;5035291;28;20453;-82
2021/05/12 06:15:21;;;;;;;35.30;18.80;;;13.20;99.90;;;;;;5035301;28;20453;-82
2021/05/12 06:17:48;;;;;;;32.37;17.83;;;13.30;99.90;;;;;;5036893;28;20513;-83
2021/05/12 06:20:15;;;;;;;36.63;19.90;;;13.30;99.90;;;;;;5037452;28;20456;-82
2021/05/12 06:22:41;;;;;;;40.07;20.37;;;13.40;99.90;;;;;;5036553;28;20453;-82
2021/05/12 06:25:10;;;;;;;33.97;19.03;;;13.60;99.90;;;;;;5037208;28;20444;-82
2021/05/12 06:27:36;;;;;;;33.37;18.60;;;13.80;99.90;;;;;;5036141;28;21131;-82
2021/05/12 06:30:04;;;;;;;36.30;17.77;;;14.00;99.90;;;;;;5037518;28;20459;-82
2021/05/12 06:32:31;;;;;;;33.73;16.20;;;14.40;99.90;;;;;;5036929;28;20500;-81
2021/05/12 06:34:57;;;;;;;36.13;16.57;;;14.60;99.90;;;;;;5039682;28;20463;-80
2021/05/12 06:37:23;;;;;;;37.50;17.50;;;14.70;99.90;;;;;;5036362;28;20457;-77
2021/05/12 06:39:50;;;;;;;31.73;15.13;;;14.70;99.90;;;;;;5035671;28;20978;-79
2021/05/12 06:42:17;;;;;;;31.93;16.27;;;14.90;99.90;;;;;;5039529;28;20518;-79
2021/05/12 06:44:43;;;;;;;34.30;13.80;;;15.10;99.90;;;;;;5039011;28;20464;-79
2021/05/12 06:47:10;;;;;;;30.90;14.17;;;15.30;99.90;;;;;;5027691;28;20524;-82
2021/05/12 06:49:37;;;;;;;33.10;14.20;;;15.50;99.90;;;;;;5038080;28;20456;-79
2021/05/12 06:52:03;;;;;;;30.80;14.87;;;15.70;99.90;;;;;;5037988;28;20868;-78
2021/05/12 06:54:30;;;;;;;31.40;11.90;;;15.90;99.90;;;;;;5040201;28;20449;-79
2021/05/12 06:56:56;;;;;;;34.80;12.97;;;16.10;99.90;;;;;;5047235;28;20493;-79
2021/05/12 06:59:22;;;;;;;27.60;12.20;;;16.30;99.90;;;;;;5043192;28;20956;-80
2021/05/12 07:01:49;;;;;;;34.23;12.00;;;16.40;99.90;;;;;;5039511;28;20455;-80
2021/05/12 07:04:16;;;;;;;26.73;9.73;;;16.50;99.90;;;;;;5038737;28;20531;-80
2021/05/12 07:06:42;;;;;;;30.10;11.53;;;16.50;99.90;;;;;;5038952;28;20452;-80
2021/05/12 07:09:09;;;;;;;35.40;10.93;;;16.60;99.90;;;;;;5038017;28;20460;-80
2021/05/12 07:11:35;;;;;;;26.30;9.40;;;16.50;99.90;;;;;;5038210;28;20586;-80
2021/05/12 07:14:03;;;;;;;32.07;9.40;;;16.60;99.90;;;;;;5033591;28;20885;-81
2021/05/12 07:16:29;;;;;;;27.20;9.20;;;16.80;99.90;;;;;;5030259;28;21067;-81
2021/05/12 07:18:56;;;;;;;27.60;9.47;;;17.10;99.90;;;;;;5038306;28;20480;-80
2021/05/12 07:21:23;;;;;;;25.43;7.63;;;17.10;99.90;;;;;;5021111;28;20490;-79
2021/05/12 07:23:49;;;;;;;29.27;9.73;;;17.20;99.90;;;;;;5036031;28;20989;-81
2021/05/12 07:26:16;;;;;;;25.00;8.27;;;17.30;99.90;;;;;;5038219;28;20464;-82
2021/05/12 07:28:44;;;;;;;28.27;9.50;;;17.30;99.90;;;;;;5038624;28;20488;-80
2021/05/12 07:31:10;;;;;;;29.30;8.43;;;17.20;99.90;;;;;;5038270;28;20548;-81
2021/05/12 07:33:37;;;;;;;34.23;8.90;;;17.20;99.90;;;;;;5037771;28;21007;-81
2021/05/12 07:36:04;;;;;;;31.37;9.93;;;17.30;99.90;;;;;;5037611;28;20831;-80
2021/05/12 07:38:31;;;;;;;24.00;8.27;;;17.60;99.90;;;;;;5038012;28;20471;-80
2021/05/12 07:40:59;;;;;;;26.50;8.43;;;17.50;99.90;;;;;;5037939;28;20539;-80
2021/05/12 07:43:25;;;;;;;29.67;8.57;;;17.50;99.90;;;;;;5036076;28;20957;-80
2021/05/12 07:45:53;;;;;;;25.23;8.50;;;17.40;99.90;;;;;;5036137;28;20488;-80
2021/05/12 07:48:19;;;;;;;28.10;8.03;;;17.40;99.90;;;;;;5042401;28;20496;-80
2021/05/12 07:50:46;;;;;;;26.80;8.27;;;17.50;99.90;;;;;;5035241;28;20461;-80
2021/05/12 07:53:12;;;;;;;25.87;7.40;;;17.30;99.90;;;;;;5036225;28;20457;-80
2021/05/12 07:55:39;;;;;;;24.03;8.70;;;17.10;99.90;;;;;;5036174;28;20456;-81
2021/05/12 07:58:06;;;;;;;22.30;7.30;;;17.20;99.90;;;;;;5037123;28;20507;-81
2021/05/12 08:00:34;;;;;;;26.63;9.30;;;17.20;99.90;;;;;;5037361;28;20453;-79
2021/05/12 08:03:01;;;;;;;25.37;7.70;;;17.40;99.90;;;;;;5039556;28;20968;-85
2021/05/12 08:05:27;;;;;;;32.53;9.47;;;17.70;99.90;;;;;;5042643;28;20467;-81
2021/05/12 08:07:54;;;;;;;30.10;11.03;;;18.30;99.90;;;;;;5038313;28;20508;-81
2021/05/12 08:10:20;;;;;;;34.67;11.30;;;19.20;99.90;;;;;;5035738;28;20648;-82
2021/05/12 08:12:47;;;;;;;41.20;12.67;;;19.70;99.90;;;;;;5034141;28;21104;-82
2021/05/12 08:15:13;;;;;;;44.83;23.50;;;19.60;99.90;;;;;;5036941;28;20459;-81
2021/05/12 08:17:40;;;;;;;251.23;233.87;;;20.70;99.90;;;;;;5052051;22;20479;-83
2021/05/12 08:20:07;;;;;;;924.80;570.47;;;20.80;99.90;;;;;;5036035;28;20493;-82
2021/05/12 08:22:34;;;;;;;985.57;628.70;;;21.30;99.90;;;;;;5032903;28;20511;-83
2021/05/12 08:25:00;;;;;;;23.43;16.77;;;21.80;99.90;;;;;;5026215;28;20481;-83
2021/05/12 08:27:26;;;;;;;15.33;10.00;;;22.80;99.90;;;;;;5030728;28;20519;-82
2021/05/12 08:29:55;;;;;;;14.23;9.60;;;23.90;99.90;;;;;;5038236;28;20485;-83
2021/05/12 08:32:22;;;;;;;16.10;9.43;;;24.90;99.90;;;;;;5030848;28;20481;-82
2021/05/12 08:34:48;;;;;;;14.00;10.43;;;25.00;99.90;;;;;;5032787;28;20837;-81
2021/05/12 08:37:14;;;;;;;15.27;9.47;;;23.80;99.90;;;;;;5033135;28;20966;-81
2021/05/12 08:39:41;;;;;;;14.70;10.90;;;22.80;99.90;;;;;;5029870;28;20456;-81
2021/05/12 08:42:07;;;;;;;15.27;11.43;;;21.70;99.90;;;;;;5035565;28;20449;-81
2021/05/12 08:44:34;;;;;;;15.23;10.13;;;21.50;99.90;;;;;;5037244;28;20479;-81
2021/05/12 08:47:02;;;;;;;21.67;10.80;;;21.30;99.90;;;;;;5037594;28;20940;-82
2021/05/12 08:49:31;;;;;;;13.57;8.57;;;22.40;99.90;;;;;;5032363;28;20559;-81
2021/05/12 08:51:58;;;;;;;13.40;9.60;;;23.70;99.90;;;;;;5034164;28;20460;-81
2021/05/12 08:54:25;;;;;;;15.00;9.80;;;24.10;99.90;;;;;;5034002;28;20813;-81
2021/05/12 08:56:51;;;;;;;12.57;7.03;;;23.60;99.90;;;;;;5034391;28;20460;-82
2021/05/12 08:59:18;;;;;;;11.53;7.93;;;24.00;99.90;;;;;;5028226;28;20469;-81
2021/05/12 09:01:44;;;;;;;12.90;7.97;;;24.40;99.90;;;;;;5032600;28;20995;-83
2021/05/12 09:04:12;;;;;;;13.50;7.90;;;25.20;99.90;;;;;;5036153;28;20449;-82
2021/05/12 09:06:39;;;;;;;12.80;7.60;;;25.10;99.90;;;;;;5036607;28;20449;-82
2021/05/12 09:09:07;;;;;;;10.37;6.40;;;24.50;99.90;;;;;;5036012;28;20507;-81
2021/05/12 09:11:34;;;;;;;10.60;6.33;;;24.20;99.90;;;;;;5036042;28;20516;-81
2021/05/12 09:14:01;;;;;;;12.53;7.17;;;23.30;99.90;;;;;;5036133;28;20548;-81
2021/05/12 09:16:29;;;;;;;11.83;6.97;;;23.70;99.90;;;;;;5037070;28;20456;-82
2021/05/12 09:19:07;;;;;;;12.90;7.83;;;25.60;99.90;;;;;;5036150;28;20568;-82
2021/05/12 09:21:45;;;;;;;12.63;7.00;;;27.00;99.50;;;;;;5036537;28;20522;-81
2021/05/12 09:24:27;;;;;;;12.77;6.90;;;27.80;99.90;;;;;;5036208;28;20820;-81
2021/05/12 09:26:56;;;;;;;12.67;6.70;;;26.40;96.70;;;;;;5034078;28;20458;-82
2021/05/12 09:29:26;;;;;;;10.23;5.53;;;25.90;95.80;;;;;;5034626;28;20549;-81
2021/05/12 09:32:00;;;;;;;11.73;6.40;;;25.00;99.50;;;;;;5043739;28;20457;-81
2021/05/12 09:34:27;;;;;;;12.07;8.23;;;24.00;98.80;;;;;;5035230;28;20543;-81
2021/05/12 09:36:55;;;;;;;11.53;6.97;;;21.70;99.90;;;;;;5034839;28;20457;-81
2021/05/12 09:39:21;;;;;;;13.47;6.97;;;21.00;99.90;;;;;;5032077;28;20560;-82
2021/05/12 09:41:47;;;;;;;10.60;5.83;;;22.10;99.90;;;;;;5034693;28;20502;-82
2021/05/12 09:44:14;;;;;;;9.07;5.20;;;24.60;99.90;;;;;;5036727;28;20445;-83
2021/05/12 09:46:42;;;;;;;14.90;7.37;;;27.20;99.90;;;;;;5038399;28;20461;-82
2021/05/12 09:49:15;;;;;;;9.97;6.37;;;29.30;95.80;;;;;;5037423;28;20468;-84
2021/05/12 09:51:44;;;;;;;10.27;6.90;;;30.60;91.90;;;;;;5040681;28;20430;-84
2021/05/12 09:54:14;;;;;;;11.90;6.80;;;30.10;87.10;;;;;;5033808;28;20464;-84
2021/05/12 09:56:46;;;;;;;12.00;7.27;;;29.00;84.40;;;;;;5038593;28;20459;-84
2021/05/12 09:59:16;;;;;;;8.50;4.73;;;27.30;80.60;;;;;;5037303;28;20534;-84
2021/05/12 10:02:01;;;;;;;9.07;6.20;;;26.50;89.00;;;;;;5039658;28;20521;-83
2021/05/12 10:04:39;;;;;;;12.10;7.00;;;25.20;88.90;;;;;;5038114;28;20536;-82
2021/05/12 10:07:16;;;;;;;14.60;8.27;;;24.00;91.70;;;;;;5039543;28;20999;-83
2021/05/12 10:09:45;;;;;;;10.87;7.80;;;22.60;92.40;;;;;;5039851;28;20452;-83
2021/05/12 10:12:14;;;;;;;14.80;9.20;;;22.20;94.10;;;;;;5039430;28;20465;-83
2021/05/12 10:14:42;;;;;;;12.77;6.90;;;22.90;94.30;;;;;;5035982;28;20526;-82
2021/05/12 10:17:10;;;;;;;13.47;7.70;;;23.30;98.20;;;;;;5034151;28;21016;-82
2021/05/12 10:19:37;;;;;;;11.30;6.53;;;23.30;97.70;;;;;;5036032;28;20464;-81
2021/05/12 10:22:05;;;;;;;11.00;6.90;;;22.90;96.60;;;;;;5035413;28;20601;-82
2021/05/12 10:24:34;;;;;;;11.97;8.30;;;22.30;95.10;;;;;;5037013;28;20884;-85
2021/05/12 10:27:09;;;;;;;16.60;13.93;;;21.70;96.60;;;;;;5046138;28;21400;-83
2021/05/12 10:29:38;;;;;;;17.73;12.63;;;20.70;99.90;;;;;;5042114;28;20547;-84
2021/05/12 10:32:22;;;;;;;15.40;12.40;;;20.80;99.90;;;;;;5041953;28;20441;-84
2021/05/12 10:34:58;;;;;;;16.77;13.90;;;21.30;99.90;;;;;;5041955;28;20502;-84
2021/05/12 10:37:29;;;;;;;18.17;13.83;;;22.40;99.90;;;;;;5042261;28;20441;-84
2021/05/12 10:40:00;;;;;;;15.63;12.90;;;21.70;99.90;;;;;;5044055;28;20456;-84
2021/05/12 10:42:56;;;;;;;14.50;11.57;;;22.90;99.90;;;;;;5040512;28;20460;-84
2021/05/12 10:45:54;;;;;;;16.10;12.03;;;24.40;99.90;;;;;;5039739;28;20444;-84
2021/05/12 10:48:38;;;;;;;13.60;9.63;;;25.00;99.90;;;;;;5040037;28;21026;-84
2021/05/12 10:51:06;;;;;;;14.20;8.10;;;24.10;98.90;;;;;;5036070;28;20531;-84
2021/05/12 10:53:34;;;;;;;11.83;8.33;;;24.00;99.90;;;;;;5040357;28;20464;-84
2021/05/12 10:56:06;;;;;;;11.37;8.40;;;23.40;97.90;;;;;;5042345;28;20457;-84
2021/05/12 10:58:46;;;;;;;14.87;9.30;;;23.10;99.90;;;;;;5040545;28;20559;-84
2021/05/12 11:01:13;;;;;;;15.20;11.60;;;24.80;99.90;;;;;;5038279;28;20459;-84
2021/05/12 11:04:08;;;;;;;13.57;10.30;;;28.10;99.90;;;;;;5036092;28;20500;-84
2021/05/12 11:07:03;;;;;;;12.93;9.73;;;30.10;91.60;;;;;;5032163;28;21042;-85
2021/05/12 11:09:49;;;;;;;12.37;9.00;;;29.20;86.30;;;;;;5031337;28;20537;-84
2021/05/12 11:12:23;;;;;;;13.00;8.13;;;28.10;85.60;;;;;;5036919;28;20452;-85
2021/05/12 11:15:07;;;;;;;11.97;9.63;;;27.00;88.10;;;;;;5041570;28;20460;-84
2021/05/12 11:17:52;;;;;;;14.97;11.50;;;25.60;88.80;;;;;;5039756;28;20484;-84
2021/05/12 11:20:25;;;;;;;14.60;9.73;;;24.00;91.60;;;;;;5045387;28;20448;-85
2021/05/12 11:22:57;;;;;;;16.37;11.70;;;23.10;94.10;;;;;;5048222;28;20968;-84
2021/05/12 11:25:41;;;;;;;16.60;9.27;;;22.50;95.40;;;;;;5042177;28;20448;-84
2021/05/12 11:33:49;;;;;;;11.53;8.33;;;23.50;95.60;;;;;;5002402;28;20452;-83
2021/05/12 11:36:18;;;;;;;13.17;9.83;;;26.30;91.80;;;;;;5045903;28;20582;-84
2021/05/12 11:38:45;;;;;;;11.93;8.80;;;26.40;90.00;;;;;;5046057;28;20485;-85
2021/05/12 11:41:14;;;;;;;10.93;8.40;;;25.10;91.10;;;;;;5041317;28;21205;-83
2021/05/12 11:43:44;;;;;;;11.93;7.87;;;23.90;92.30;;;;;;5046811;28;20475;-85
2021/05/12 11:46:14;;;;;;;9.83;7.47;;;23.30;97.00;;;;;;5042575;28;20444;-84
2021/05/12 11:48:44;;;;;;;12.43;8.63;;;22.60;93.20;;;;;;5036335;28;20496;-84
2021/05/12 11:51:11;;;;;;;11.00;6.87;;;22.10;96.80;;;;;;5042790;28;20489;-83
2021/05/12 11:53:41;;;;;;;12.23;8.00;;;21.70;99.40;;;;;;5042947;28;21022;-84
2021/05/12 11:56:08;;;;;;;14.70;9.40;;;21.40;99.90;;;;;;5034818;28;20462;-84
2021/05/12 11:58:37;;;;;;;12.53;7.73;;;21.10;99.90;;;;;;5035195;28;20473;-84
2021/05/12 12:01:13;;;;;;;13.40;8.30;;;20.70;99.90;;;;;;5041499;28;20513;-84
2021/05/12 12:03:46;;;;;;;17.03;11.20;;;20.50;99.90;;;;;;5034771;28;20441;-83
2021/05/12 12:06:14;;;;;;;14.47;10.80;;;20.20;99.90;;;;;;5043411;28;20456;-82
2021/05/12 12:08:41;;;;;;;14.03;9.20;;;20.20;99.90;;;;;;5035508;28;21024;-84
2021/05/12 12:11:10;;;;;;;14.40;9.40;;;20.10;99.90;;;;;;5033673;28;21100;-84
2021/05/12 12:13:36;;;;;;;11.80;9.40;;;20.30;99.90;;;;;;5035695;28;20825;-84
2021/05/12 12:16:03;;;;;;;11.00;7.43;;;20.70;99.90;;;;;;5032239;28;20497;-84
2021/05/12 12:18:32;;;;;;;11.50;7.93;;;20.90;99.90;;;;;;5035853;28;20468;-85
2021/05/12 12:20:59;;;;;;;14.30;8.10;;;20.90;99.90;;;;;;5039797;28;20452;-84
2021/05/12 12:23:30;;;;;;;10.67;5.83;;;20.70;99.90;;;;;;5032362;28;20489;-83
2021/05/12 12:26:15;;;;;;;8.07;4.90;;;20.80;99.90;;;;;;5040076;28;20516;-84
2021/05/12 12:28:44;;;;;;;10.27;5.90;;;20.90;99.90;;;;;;5037296;28;20484;-85
2021/05/12 12:31:18;;;;;;;10.57;5.30;;;20.90;99.90;;;;;;5041708;28;20517;-85
2021/05/12 12:34:20;;;;;;;12.67;5.30;;;21.10;99.90;;;;;;5042956;28;20441;-85
2021/05/12 12:36:53;;;;;;;9.70;6.17;;;21.00;99.90;;;;;;5027555;28;20464;-83
2021/05/12 12:39:20;;;;;;;15.27;7.87;;;21.30;99.90;;;;;;5043035;28;20531;-83
2021/05/12 12:41:49;;;;;;;10.00;7.07;;;21.20;98.40;;;;;;5029925;28;20459;-84